createdAt,value
2018-09-10T00:01:11.877Z,17.10
2018-09-10T00:03:40.202Z,17.00
2018-09-10T00:06:08.522Z,17.00
2018-09-10T00:08:37.075Z,17.00
2018-09-10T00:11:06.067Z,16.90
2018-09-10T00:13:34.400Z,16.90
2018-09-10T00:16:02.769Z,17.00
2018-09-10T00:18:31.211Z,16.90
2018-09-10T00:20:59.518Z,16.90
2018-09-10T00:23:27.917Z,16.90
2018-09-10T00:25:56.296Z,16.80
2018-09-10T00:28:24.676Z,16.80
2018-09-10T00:30:53.099Z,16.80
2018-09-10T00:33:21.453Z,16.80
2018-09-10T00:35:50.195Z,16.70
2018-09-10T00:38:18.632Z,16.70
2018-09-10T00:40:46.961Z,16.70
2018-09-10T00:43:15.505Z,16.70
2018-09-10T00:45:43.919Z,16.70
2018-09-10T00:48:12.213Z,16.70
2018-09-10T00:50:40.551Z,16.60
2018-09-10T00:53:08.891Z,16.60
2018-09-10T00:55:37.327Z,16.50
2018-09-10T00:58:05.679Z,16.50
2018-09-10T01:00:34.105Z,16.50
2018-09-10T01:03:02.431Z,16.40
2018-09-10T01:05:30.817Z,16.40
2018-09-10T01:07:59.408Z,16.40
2018-09-10T01:10:28.221Z,16.40
2018-09-10T01:12:56.584Z,16.30
2018-09-10T01:15:24.877Z,16.30
2018-09-10T01:17:53.206Z,16.30
2018-09-10T01:20:21.540Z,16.20
2018-09-10T01:22:49.924Z,16.20
2018-09-10T01:25:25.018Z,16.20
2018-09-10T01:27:53.598Z,16.20
2018-09-10T01:30:21.912Z,16.20
2018-09-10T01:32:50.276Z,16.10
2018-09-10T01:35:18.643Z,16.10
2018-09-10T01:37:46.955Z,16.10
2018-09-10T01:40:15.357Z,16.10
2018-09-10T01:42:43.659Z,16.10
2018-09-10T01:45:12.000Z,16.10
2018-09-10T01:47:40.363Z,16.10
2018-09-10T01:50:08.708Z,16.10
2018-09-10T01:52:37.067Z,16.10
2018-09-10T01:55:05.422Z,16.10
2018-09-10T01:57:33.752Z,16.10
2018-09-10T02:00:02.075Z,16.10
2018-09-10T02:02:30.471Z,16.10
2018-09-10T02:04:58.831Z,16.10
2018-09-10T02:07:27.174Z,16.10
2018-09-10T02:09:55.474Z,16.10
2018-09-10T02:12:25.417Z,16.20
2018-09-10T02:14:55.355Z,16.20
2018-09-10T02:17:24.238Z,16.20
2018-09-10T02:19:52.599Z,16.20
2018-09-10T02:22:21.237Z,16.20
2018-09-10T02:24:49.585Z,16.20
2018-09-10T02:27:17.958Z,16.20
2018-09-10T02:29:46.366Z,16.30
2018-09-10T02:32:14.687Z,16.30
2018-09-10T02:34:43.071Z,16.30
2018-09-10T02:37:11.404Z,16.30
2018-09-10T02:39:39.740Z,16.30
2018-09-10T02:42:08.097Z,16.30
2018-09-10T02:44:36.471Z,16.30
2018-09-10T02:47:04.777Z,16.40
2018-09-10T02:49:33.049Z,16.40
2018-09-10T02:52:01.354Z,16.40
2018-09-10T02:54:29.658Z,16.40
2018-09-10T02:56:58.047Z,16.30
2018-09-10T02:59:26.413Z,16.30
2018-09-10T03:01:54.843Z,16.30
2018-09-10T03:04:23.222Z,16.30
2018-09-10T03:06:51.572Z,16.20
2018-09-10T03:09:19.968Z,16.20
2018-09-10T03:11:48.311Z,16.10
2018-09-10T03:14:16.654Z,16.10
2018-09-10T03:16:45.528Z,16.10
2018-09-10T03:19:13.870Z,16.10
2018-09-10T03:21:42.212Z,16.10
2018-09-10T03:24:10.617Z,16.00
2018-09-10T03:26:38.991Z,15.90
2018-09-10T03:29:07.714Z,15.90
2018-09-10T03:31:36.061Z,15.90
2018-09-10T03:34:04.406Z,15.80
2018-09-10T03:36:33.093Z,15.70
2018-09-10T03:39:01.393Z,15.70
2018-09-10T03:41:29.704Z,15.60
2018-09-10T03:43:58.079Z,15.60
2018-09-10T03:46:26.455Z,15.50
2018-09-10T03:48:54.810Z,15.60
2018-09-10T03:51:23.138Z,15.50
2018-09-10T03:53:51.488Z,15.50
2018-09-10T03:56:19.952Z,15.50
2018-09-10T03:58:48.343Z,15.50
2018-09-10T04:01:16.942Z,15.60
2018-09-10T04:03:45.254Z,15.50
2018-09-10T04:06:13.549Z,15.50
2018-09-10T04:08:42.095Z,15.50
2018-09-10T04:11:10.711Z,15.50
2018-09-10T04:13:39.113Z,15.40
2018-09-10T04:16:07.442Z,15.40
2018-09-10T04:18:35.820Z,15.40
2018-09-10T04:21:04.145Z,15.40
2018-09-10T04:23:32.937Z,15.40
2018-09-10T04:26:01.408Z,15.40
2018-09-10T04:28:29.695Z,15.40
2018-09-10T04:30:58.078Z,15.40
2018-09-10T04:33:26.815Z,15.30
2018-09-10T04:35:55.313Z,15.40
2018-09-10T04:38:23.687Z,15.40
2018-09-10T04:40:52.028Z,15.40
2018-09-10T04:43:20.353Z,15.40
2018-09-10T04:45:48.653Z,15.40
2018-09-10T04:48:17.015Z,15.40
2018-09-10T04:50:45.396Z,15.40
2018-09-10T04:53:13.738Z,15.50
2018-09-10T04:55:42.150Z,15.50
2018-09-10T04:58:10.595Z,15.50
2018-09-10T05:00:38.912Z,15.50
2018-09-10T05:03:07.324Z,15.50
2018-09-10T05:05:35.669Z,15.60
2018-09-10T05:08:04.034Z,15.60
2018-09-10T05:10:32.453Z,15.60
2018-09-10T05:13:00.782Z,15.70
2018-09-10T05:15:29.218Z,15.70
2018-09-10T05:17:57.583Z,15.70
2018-09-10T05:20:25.940Z,15.70
2018-09-10T05:22:55.278Z,15.80
2018-09-10T05:25:23.586Z,15.80
2018-09-10T05:27:51.973Z,15.70
2018-09-10T05:30:20.334Z,15.80
2018-09-10T05:32:48.707Z,15.80
2018-09-10T05:35:17.052Z,15.80
2018-09-10T05:37:45.436Z,15.80
2018-09-10T05:40:13.813Z,15.80
2018-09-10T05:42:42.266Z,15.80
2018-09-10T05:45:11.905Z,15.90
2018-09-10T05:47:40.761Z,15.90
2018-09-10T05:50:09.890Z,15.90
2018-09-10T05:52:38.179Z,15.90
2018-09-10T05:55:06.632Z,15.90
2018-09-10T05:57:34.960Z,15.90
2018-09-10T06:00:03.589Z,15.90
2018-09-10T06:02:31.962Z,15.80
2018-09-10T06:05:00.296Z,15.80
2018-09-10T06:07:28.759Z,15.80
2018-09-10T06:09:57.226Z,15.90
2018-09-10T06:12:25.593Z,16.00
2018-09-10T06:14:53.947Z,16.00
2018-09-10T06:17:22.351Z,16.10
2018-09-10T06:19:50.702Z,16.30
2018-09-10T06:22:19.028Z,16.40
2018-09-10T06:24:47.366Z,16.50
2018-09-10T06:27:15.699Z,16.70
2018-09-10T06:29:44.133Z,16.90
2018-09-10T06:32:12.831Z,17.10
2018-09-10T06:34:41.346Z,17.40
2018-09-10T06:37:09.751Z,17.60
2018-09-10T06:39:38.169Z,17.70
2018-09-10T06:42:06.538Z,17.80
2018-09-10T06:44:35.027Z,17.80
2018-09-10T06:47:03.351Z,17.80
2018-09-10T06:49:32.067Z,18.00
2018-09-10T06:52:00.457Z,18.10
2018-09-10T06:54:29.454Z,18.30
2018-09-10T06:56:58.789Z,18.50
2018-09-10T06:59:27.244Z,18.70
2018-09-10T07:01:55.576Z,18.80
2018-09-10T07:04:24.003Z,19.00
2018-09-10T07:06:52.644Z,19.30
2018-09-10T07:09:21.092Z,19.40
2018-09-10T07:11:49.442Z,19.50
2018-09-10T07:14:17.913Z,19.60
2018-09-10T07:16:46.242Z,19.50
2018-09-10T07:19:14.740Z,19.60
2018-09-10T07:21:43.235Z,19.70
2018-09-10T07:24:11.685Z,19.80
2018-09-10T07:26:40.068Z,19.90
2018-09-10T07:29:08.440Z,20.30
2018-09-10T07:31:36.798Z,20.60
2018-09-10T07:34:05.410Z,21.00
2018-09-10T07:39:01.864Z,21.50
2018-09-10T07:41:30.203Z,22.20
2018-09-10T07:43:58.642Z,22.20
2018-09-10T07:46:26.960Z,22.20
2018-09-10T07:48:55.365Z,22.10
2018-09-10T07:51:23.691Z,22.00
2018-09-10T07:53:52.115Z,21.80
2018-09-10T07:56:20.449Z,21.70
2018-09-10T07:58:48.892Z,21.80
2018-09-10T08:01:17.361Z,21.90
2018-09-10T08:03:45.744Z,22.10
2018-09-10T08:06:14.678Z,22.20
2018-09-10T08:08:43.072Z,22.50
2018-09-10T08:58:07.126Z,22.60
2018-09-10T09:00:35.528Z,25.10
2018-09-10T09:03:03.944Z,25.30
2018-09-10T09:05:32.315Z,25.30
2018-09-10T09:08:01.564Z,25.50
2018-09-10T09:10:29.940Z,25.40
2018-09-10T09:12:58.320Z,25.20
2018-09-10T09:15:26.936Z,25.30
2018-09-10T09:17:55.373Z,25.20
2018-09-10T09:20:23.868Z,25.10
2018-09-10T09:22:52.208Z,25.10
2018-09-10T09:25:20.579Z,25.20
2018-09-10T09:27:48.956Z,25.30
2018-09-10T09:30:17.428Z,25.50
2018-09-10T09:32:45.796Z,25.40
2018-09-10T09:35:14.151Z,25.30
2018-09-10T09:37:47.854Z,25.30
2018-09-10T09:40:21.666Z,25.30
2018-09-10T09:42:55.498Z,25.20
2018-09-10T09:45:30.949Z,25.20
2018-09-10T09:47:59.262Z,25.30
2018-09-10T09:50:28.228Z,25.40
2018-09-10T09:52:56.605Z,25.50
2018-09-10T09:55:25.051Z,25.50
2018-09-10T09:57:53.447Z,25.50
2018-09-10T10:00:27.185Z,25.70
2018-09-10T10:03:01.684Z,25.70
2018-09-10T10:05:30.030Z,25.60
2018-09-10T10:07:58.436Z,25.90
2018-09-10T10:10:26.794Z,26.00
2018-09-10T10:12:55.115Z,26.20
2018-09-10T10:15:23.521Z,26.30
2018-09-10T10:17:51.854Z,26.20
2018-09-10T10:20:20.200Z,26.20
2018-09-10T10:22:48.596Z,26.10
2018-09-10T10:25:17.053Z,26.20
2018-09-10T10:27:45.379Z,26.10
2018-09-10T10:30:13.764Z,26.10
2018-09-10T10:32:42.116Z,26.30
2018-09-10T10:35:10.558Z,26.50
2018-09-10T10:37:39.294Z,26.70
2018-09-10T10:40:07.734Z,26.80
2018-09-10T10:42:36.335Z,26.70
2018-09-10T10:45:05.575Z,26.60
2018-09-10T10:47:34.217Z,26.80
2018-09-10T10:50:02.788Z,27.00
2018-09-10T10:52:31.159Z,27.20
2018-09-10T10:54:59.707Z,27.10
2018-09-10T10:57:28.193Z,26.90
2018-09-10T10:59:56.593Z,26.80
2018-09-10T11:02:24.993Z,26.70
2018-09-10T11:04:53.863Z,26.80
2018-09-10T11:09:53.983Z,26.80
2018-09-10T11:12:22.432Z,26.60
2018-09-10T11:14:50.807Z,26.90
2018-09-10T11:17:19.377Z,26.80
2018-09-10T11:19:47.804Z,26.90
2018-09-10T11:22:16.691Z,26.70
2018-09-10T11:24:45.136Z,26.60
2018-09-10T11:27:13.497Z,26.60
2018-09-10T11:29:42.438Z,26.40
2018-09-10T11:32:10.852Z,26.30
2018-09-10T11:34:39.297Z,26.30
2018-09-10T11:37:07.640Z,26.20
2018-09-10T11:39:36.058Z,26.30
2018-09-10T11:42:04.755Z,26.50
2018-09-10T11:44:34.126Z,26.60
2018-09-10T11:47:02.790Z,26.90
2018-09-10T11:49:31.155Z,27.10
2018-09-10T11:51:59.495Z,27.10
2018-09-10T11:54:29.053Z,27.20
2018-09-10T11:56:57.421Z,27.10
2018-09-10T11:59:27.289Z,27.20
2018-09-10T12:01:56.462Z,26.90
2018-09-10T12:04:24.894Z,26.80
2018-09-10T12:06:53.498Z,26.90
2018-09-10T12:09:21.820Z,26.80
2018-09-10T12:11:50.181Z,26.80
2018-09-10T12:14:18.551Z,27.00
2018-09-10T12:16:46.964Z,27.10
2018-09-10T12:19:15.242Z,27.30
2018-09-10T12:21:43.585Z,27.30
2018-09-10T12:24:11.924Z,27.20
2018-09-10T12:26:40.359Z,27.00
2018-09-10T12:29:08.752Z,26.90
2018-09-10T12:31:37.135Z,26.70
2018-09-10T12:34:05.547Z,26.70
2018-09-10T12:36:33.846Z,26.80
2018-09-10T12:39:02.223Z,26.80
2018-09-10T12:41:30.580Z,26.80
2018-09-10T12:43:58.866Z,26.70
2018-09-10T12:46:27.499Z,26.50
2018-09-10T12:48:55.838Z,26.40
2018-09-10T12:51:24.197Z,26.30
2018-09-10T12:53:52.491Z,26.30
2018-09-10T12:56:20.801Z,26.30
2018-09-10T12:58:49.167Z,26.30
2018-09-10T13:01:17.495Z,26.20
2018-09-10T13:03:45.989Z,26.10
2018-09-10T13:06:14.952Z,26.00
2018-09-10T13:08:43.552Z,25.90
2018-09-10T13:11:11.947Z,25.90
2018-09-10T13:13:40.252Z,25.80
2018-09-10T13:16:08.869Z,26.00
2018-09-10T13:18:37.215Z,26.10
2018-09-10T13:21:05.633Z,26.20
2018-09-10T13:23:33.959Z,26.30
2018-09-10T13:26:02.257Z,26.30
2018-09-10T13:28:30.575Z,26.30
2018-09-10T13:30:58.878Z,26.20
2018-09-10T13:33:27.207Z,26.10
2018-09-10T13:35:55.552Z,26.20
2018-09-10T13:38:25.557Z,26.00
2018-09-10T13:40:54.796Z,26.00
2018-09-10T13:43:23.129Z,26.00
2018-09-10T13:45:51.710Z,25.90
2018-09-10T13:48:20.010Z,25.80
2018-09-10T13:50:48.335Z,25.70
2018-09-10T13:53:16.642Z,25.70
2018-09-10T13:55:44.943Z,25.60
2018-09-10T13:58:14.006Z,25.50
2018-09-10T14:00:42.310Z,25.60
2018-09-10T14:03:11.135Z,25.70
2018-09-10T14:05:42.777Z,25.70
2018-09-10T14:08:11.199Z,25.80
2018-09-10T14:10:39.537Z,25.90
2018-09-10T14:13:07.952Z,26.20
2018-09-10T14:15:36.431Z,26.40
2018-09-10T14:18:04.864Z,26.60
2018-09-10T14:20:33.150Z,26.80
2018-09-10T14:23:01.717Z,26.90
2018-09-10T14:25:30.146Z,27.00
2018-09-10T14:27:58.491Z,26.90
2018-09-10T14:30:26.855Z,26.70
2018-09-10T14:32:55.198Z,26.50
2018-09-10T14:35:23.602Z,26.50
2018-09-10T14:37:52.110Z,26.40
2018-09-10T14:40:21.554Z,26.30
2018-09-10T14:42:50.252Z,26.20
2018-09-10T14:45:18.579Z,26.00
2018-09-10T14:47:46.974Z,26.00
2018-09-10T14:50:16.913Z,26.10
2018-09-10T14:52:45.261Z,26.20
2018-09-10T14:55:13.604Z,26.20
2018-09-10T14:57:42.137Z,26.20
2018-09-10T15:00:14.699Z,26.20
2018-09-10T15:02:43.042Z,26.20
2018-09-10T15:05:11.799Z,26.20
2018-09-10T15:07:40.330Z,26.20
2018-09-10T15:10:08.607Z,26.30
2018-09-10T15:12:36.909Z,26.20
2018-09-10T15:15:05.248Z,26.10
2018-09-10T15:17:33.523Z,25.90
2018-09-10T15:20:02.134Z,25.80
2018-09-10T15:22:30.445Z,25.70
2018-09-10T15:24:58.797Z,25.60
